createdAt,value
2023-03-20T00:00:09.150Z,3.17
2023-03-20T00:02:38.718Z,2.17
2023-03-20T00:05:16.841Z,2.93
2023-03-20T00:07:44.321Z,1.67
2023-03-20T00:10:12.171Z,2.90
2023-03-20T00:12:40.055Z,3.27
2023-03-20T00:15:09.480Z,2.17
2023-03-20T00:17:36.885Z,2.33
2023-03-20T00:20:04.552Z,3.00
2023-03-20T00:22:32.879Z,2.50
2023-03-20T00:25:00.395Z,1.70
2023-03-20T00:27:28.048Z,4.10
2023-03-20T00:29:55.555Z,1.73
2023-03-20T00:32:24.827Z,2.40
2023-03-20T00:34:52.253Z,3.17
2023-03-20T00:37:19.745Z,2.60
2023-03-20T00:39:47.128Z,1.57
2023-03-20T00:42:21.716Z,1.50
2023-03-20T00:44:52.418Z,1.57
2023-03-20T00:47:21.429Z,1.97
2023-03-20T00:49:50.908Z,1.60
2023-03-20T00:52:18.984Z,1.93
2023-03-20T00:54:46.478Z,3.37
2023-03-20T00:57:17.916Z,2.23
2023-03-20T00:59:54.126Z,2.00
2023-03-20T01:02:22.744Z,2.67
2023-03-20T01:04:50.103Z,4.07
2023-03-20T01:07:19.213Z,1.70
2023-03-20T01:09:47.281Z,2.43
2023-03-20T01:12:16.435Z,2.90
2023-03-20T01:14:44.517Z,2.40
2023-03-20T01:17:18.718Z,2.77
2023-03-20T01:19:46.505Z,2.63
2023-03-20T01:22:14.328Z,3.90
2023-03-20T01:24:42.345Z,3.00
2023-03-20T01:27:14.534Z,2.00
2023-03-20T01:29:42.418Z,2.07
2023-03-20T01:32:14.784Z,2.33
2023-03-20T01:34:43.515Z,2.33
2023-03-20T01:37:13.702Z,2.10
2023-03-20T01:39:41.126Z,3.23
2023-03-20T01:42:08.881Z,1.93
2023-03-20T01:44:36.870Z,3.27
2023-03-20T01:47:12.658Z,3.80
2023-03-20T01:50:01.775Z,2.33
2023-03-20T01:52:29.194Z,2.77
2023-03-20T01:54:56.636Z,4.20
2023-03-20T01:57:26.029Z,5.53
2023-03-20T02:00:16.350Z,2.77
2023-03-20T02:02:45.391Z,4.03
2023-03-20T02:05:19.330Z,3.10
2023-03-20T02:07:51.134Z,4.80
2023-03-20T02:10:19.737Z,5.97
2023-03-20T02:13:04.113Z,2.40
2023-03-20T02:16:02.170Z,6.97
2023-03-20T02:18:44.166Z,3.67
2023-03-20T02:21:50.419Z,2.77
2023-03-20T02:24:20.900Z,3.67
2023-03-20T02:27:08.178Z,6.20
2023-03-20T02:29:54.129Z,4.00
2023-03-20T02:32:34.192Z,4.20
2023-03-20T02:35:26.111Z,2.77
2023-03-20T02:37:53.590Z,4.10
2023-03-20T02:40:46.050Z,5.47
2023-03-20T02:43:20.066Z,2.70
2023-03-20T02:45:50.601Z,3.20
2023-03-20T02:48:26.442Z,4.77
2023-03-20T02:50:56.868Z,3.00
2023-03-20T02:53:43.210Z,3.03
2023-03-20T02:56:30.132Z,4.67
2023-03-20T02:58:57.549Z,3.00
2023-03-20T03:01:29.146Z,3.57
2023-03-20T03:03:59.431Z,5.47
2023-03-20T03:06:30.093Z,4.83
2023-03-20T03:09:12.893Z,3.13
2023-03-20T03:11:46.626Z,4.87
2023-03-20T03:14:41.549Z,5.90
2023-03-20T03:17:14.566Z,2.97
2023-03-20T03:19:48.348Z,6.43
2023-03-20T03:22:17.838Z,6.03
2023-03-20T03:24:49.409Z,5.73
2023-03-20T03:27:20.504Z,4.33
2023-03-20T03:29:58.997Z,3.27
2023-03-20T03:32:35.490Z,4.10
2023-03-20T03:35:05.586Z,4.13
2023-03-20T03:37:42.595Z,7.93
2023-03-20T03:40:29.045Z,7.17
2023-03-20T03:43:04.646Z,6.07
2023-03-20T03:45:45.806Z,7.97
2023-03-20T03:48:19.406Z,3.77
2023-03-20T03:51:06.301Z,4.50
2023-03-20T03:53:38.888Z,6.13
2023-03-20T03:56:09.697Z,8.80
2023-03-20T03:58:41.143Z,7.03
2023-03-20T04:01:12.085Z,5.63
2023-03-20T04:03:43.709Z,5.17
2023-03-20T04:06:14.991Z,4.97
2023-03-20T04:08:42.658Z,4.93
2023-03-20T04:11:18.186Z,3.57
2023-03-20T04:13:47.119Z,9.27
2023-03-20T04:16:16.053Z,6.10
2023-03-20T04:18:45.355Z,6.43
2023-03-20T04:21:16.144Z,5.97
2023-03-20T04:23:44.657Z,6.87
2023-03-20T04:26:12.284Z,7.87
2023-03-20T04:28:39.721Z,4.60
2023-03-20T04:31:22.115Z,5.17
2023-03-20T04:34:16.386Z,6.10
2023-03-20T04:37:08.268Z,6.60
2023-03-20T04:39:46.506Z,4.90
2023-03-20T04:42:14.552Z,6.77
2023-03-20T04:44:42.722Z,6.83
2023-03-20T04:47:10.308Z,6.10
2023-03-20T04:49:41.449Z,5.43
2023-03-20T04:52:09.205Z,7.10
2023-03-20T04:54:39.453Z,7.50
2023-03-20T04:57:06.992Z,6.63
2023-03-20T04:59:34.980Z,6.03
2023-03-20T05:02:02.596Z,8.07
2023-03-20T05:04:32.521Z,4.57
2023-03-20T05:07:00.788Z,8.80
2023-03-20T05:09:36.449Z,6.20
2023-03-20T05:12:05.678Z,8.20
2023-03-20T05:14:51.465Z,7.60
2023-03-20T05:17:37.435Z,6.53
2023-03-20T05:20:19.598Z,6.60
2023-03-20T05:22:56.441Z,5.90
2023-03-20T05:25:48.171Z,5.53
2023-03-20T05:28:18.295Z,4.97
2023-03-20T05:31:07.586Z,5.37
2023-03-20T05:33:53.964Z,4.23
2023-03-20T05:36:38.766Z,5.60
2023-03-20T05:39:32.437Z,6.20
2023-03-20T05:42:24.402Z,4.83
2023-03-20T05:45:15.803Z,8.77
2023-03-20T05:48:07.183Z,5.27
2023-03-20T05:51:01.163Z,4.70
2023-03-20T05:53:50.571Z,5.90
2023-03-20T05:56:38.586Z,6.10
2023-03-20T06:02:50.389Z,6.47
2023-03-20T06:05:40.176Z,5.50
2023-03-20T06:08:17.946Z,4.97
2023-03-20T06:10:51.329Z,5.70
2023-03-20T06:13:29.436Z,6.20
2023-03-20T06:16:04.554Z,5.00
2023-03-20T06:18:36.755Z,4.43
2023-03-20T06:21:13.010Z,4.37
2023-03-20T06:23:50.241Z,5.97
2023-03-20T06:26:18.583Z,5.27
2023-03-20T06:28:57.294Z,8.77
2023-03-20T06:31:30.660Z,5.90
2023-03-20T06:33:59.460Z,3.93
2023-03-20T06:36:29.427Z,5.77
2023-03-20T06:39:03.513Z,4.40
2023-03-20T06:41:34.690Z,4.70
2023-03-20T06:44:06.187Z,8.47
2023-03-20T06:46:56.692Z,5.27
2023-03-20T06:49:24.550Z,6.50
2023-03-20T06:51:52.052Z,5.00
2023-03-20T06:54:25.017Z,5.33
2023-03-20T06:56:52.704Z,4.57
2023-03-20T06:59:22.252Z,5.53
2023-03-20T07:02:16.362Z,4.67
2023-03-20T07:04:49.008Z,6.53
2023-03-20T07:07:42.395Z,3.67
2023-03-20T07:10:13.085Z,5.40
2023-03-20T07:12:44.072Z,6.27
2023-03-20T07:15:12.346Z,4.50
2023-03-20T07:17:40.006Z,5.03
2023-03-20T07:20:10.396Z,5.00
2023-03-20T07:22:38.177Z,5.17
2023-03-20T07:25:16.105Z,4.03
2023-03-20T07:27:50.859Z,8.07
2023-03-20T07:30:21.993Z,3.50
2023-03-20T07:32:50.600Z,5.50
2023-03-20T07:35:19.186Z,7.32
2023-03-20T07:37:47.210Z,6.87
2023-03-20T07:40:17.188Z,5.10
2023-03-20T07:42:50.980Z,4.43
2023-03-20T07:45:37.337Z,3.53
2023-03-20T07:48:05.910Z,3.03
2023-03-20T07:50:40.920Z,3.37
2023-03-20T07:53:08.654Z,4.00
2023-03-20T07:55:41.273Z,5.57
2023-03-20T07:58:11.182Z,4.60
2023-03-20T08:00:39.755Z,4.80
2023-03-20T08:03:10.128Z,8.00
2023-03-20T08:05:40.936Z,3.13
2023-03-20T08:08:08.902Z,5.70
2023-03-20T08:10:42.013Z,5.47
2023-03-20T08:13:12.512Z,3.93
2023-03-20T08:15:45.004Z,5.87
2023-03-20T08:18:15.633Z,3.33
2023-03-20T08:20:43.454Z,3.77
2023-03-20T08:23:10.962Z,3.87
2023-03-20T08:25:40.828Z,4.13
2023-03-20T08:28:08.512Z,3.57
2023-03-20T08:30:36.617Z,3.03
2023-03-20T08:33:04.469Z,3.33
2023-03-20T08:35:38.466Z,3.83
2023-03-20T08:38:06.453Z,3.37
2023-03-20T08:40:34.199Z,2.77
2023-03-20T08:43:01.856Z,6.00
2023-03-20T08:45:29.593Z,5.90
2023-03-20T08:47:59.808Z,4.37
2023-03-20T08:50:27.720Z,5.37
2023-03-20T08:52:55.375Z,4.13
2023-03-20T08:55:23.028Z,3.63
2023-03-20T08:57:51.117Z,2.57
2023-03-20T09:00:20.519Z,2.30
2023-03-20T09:02:51.878Z,2.30
2023-03-20T09:05:19.534Z,2.40
2023-03-20T09:07:47.363Z,2.03
2023-03-20T09:10:18.192Z,2.30
2023-03-20T09:12:45.818Z,2.53
2023-03-20T09:15:13.515Z,3.20
2023-03-20T09:17:44.244Z,2.37
2023-03-20T09:20:12.724Z,5.67
2023-03-20T09:22:41.403Z,3.07
2023-03-20T09:25:09.416Z,4.33
2023-03-20T09:27:37.156Z,4.50
2023-03-20T09:30:05.368Z,3.90
2023-03-20T09:32:35.828Z,2.63
2023-03-20T09:35:03.831Z,3.40
2023-03-20T09:37:31.590Z,5.23
2023-03-20T09:40:03.607Z,2.23
2023-03-20T09:42:43.707Z,2.47
2023-03-20T09:45:18.633Z,3.47
2023-03-20T09:47:59.111Z,4.83
2023-03-20T09:50:31.619Z,3.67
2023-03-20T09:53:24.030Z,2.83
2023-03-20T09:55:53.968Z,4.33
2023-03-20T09:58:24.067Z,3.50
2023-03-20T10:00:51.654Z,4.97
2023-03-20T10:03:21.408Z,3.13
2023-03-20T10:06:00.159Z,3.60
2023-03-20T10:08:29.511Z,5.00
2023-03-20T10:10:57.091Z,5.63
2023-03-20T10:13:45.172Z,5.97
2023-03-20T10:16:16.087Z,2.77
2023-03-20T10:18:52.162Z,5.13
2023-03-20T10:21:32.151Z,5.53
2023-03-20T10:24:03.523Z,3.30
2023-03-20T10:26:37.714Z,3.83
2023-03-20T10:29:14.608Z,4.90
2023-03-20T10:32:02.584Z,5.27
2023-03-20T10:34:51.554Z,3.60
2023-03-20T10:37:38.812Z,4.53
2023-03-20T10:40:10.261Z,4.00
2023-03-20T10:42:40.144Z,6.83
2023-03-20T10:45:29.033Z,4.80
2023-03-20T10:47:59.017Z,5.00
2023-03-20T10:50:34.598Z,3.90
2023-03-20T10:53:02.967Z,5.00
2023-03-20T10:55:38.213Z,4.33
2023-03-20T10:58:15.148Z,5.23
2023-03-20T11:00:45.951Z,4.10
2023-03-20T11:03:24.167Z,3.57
2023-03-20T11:06:09.369Z,3.83
2023-03-20T11:08:40.940Z,8.10
2023-03-20T11:11:08.571Z,5.07
2023-03-20T11:13:37.209Z,4.10
2023-03-20T11:16:26.465Z,4.63
2023-03-20T11:18:55.075Z,4.83
2023-03-20T11:21:32.280Z,7.43
2023-03-20T11:23:59.878Z,4.97
2023-03-20T11:26:39.995Z,4.73
2023-03-20T11:29:37.103Z,3.80
2023-03-20T11:32:27.668Z,4.67
2023-03-20T11:34:58.673Z,5.73
2023-03-20T11:37:31.738Z,5.00
2023-03-20T11:40:18.058Z,3.87
2023-03-20T11:42:56.654Z,5.13
2023-03-20T11:45:28.142Z,4.60
2023-03-20T11:47:58.021Z,5.87
2023-03-20T11:50:36.215Z,4.90
2023-03-20T11:53:05.826Z,5.37
2023-03-20T11:55:34.803Z,5.67
2023-03-20T11:58:09.961Z,3.57
2023-03-20T12:00:42.848Z,3.97
2023-03-20T12:03:49.519Z,6.40
2023-03-20T12:06:21.809Z,3.63
2023-03-20T12:08:56.437Z,4.70
2023-03-20T12:11:42.853Z,5.17
2023-03-20T12:14:18.520Z,4.37
2023-03-20T12:16:47.494Z,4.83
2023-03-20T12:19:19.780Z,3.57
2023-03-20T12:21:49.586Z,6.90
2023-03-20T12:24:27.595Z,5.07
2023-03-20T12:26:57.530Z,3.93
2023-03-20T12:29:28.608Z,3.93
2023-03-20T12:31:59.366Z,3.47
2023-03-20T12:34:33.377Z,4.77
2023-03-20T12:37:01.587Z,3.90
2023-03-20T12:39:38.630Z,6.80
2023-03-20T12:42:24.627Z,3.20
2023-03-20T12:45:09.721Z,5.67
2023-03-20T12:47:56.505Z,2.57
2023-03-20T12:50:27.731Z,3.47
2023-03-20T12:53:07.223Z,3.17
2023-03-20T12:55:44.561Z,4.10
2023-03-20T12:58:15.334Z,2.20
2023-03-20T13:00:45.189Z,3.60
2023-03-20T13:03:20.723Z,2.57
2023-03-20T13:05:51.454Z,2.17
2023-03-20T13:08:38.597Z,2.73
2023-03-20T13:11:09.239Z,2.10
2023-03-20T13:13:51.922Z,2.63
2023-03-20T13:16:46.750Z,2.33
2023-03-20T13:19:17.454Z,2.70
2023-03-20T13:21:45.024Z,2.60
2023-03-20T13:24:33.222Z,1.90
2023-03-20T13:27:01.225Z,1.80
2023-03-20T13:29:34.942Z,2.13
2023-03-20T13:32:41.794Z,3.63
2023-03-20T13:35:27.932Z,2.20
2023-03-20T13:37:58.655Z,1.77
2023-03-20T13:40:31.002Z,1.97
2023-03-20T13:43:01.438Z,2.13
2023-03-20T13:45:44.584Z,2.50
2023-03-20T13:48:31.154Z,2.80
2023-03-20T13:51:02.765Z,2.10
2023-03-20T13:53:46.155Z,1.63
2023-03-20T13:56:32.731Z,1.70
2023-03-20T13:59:12.757Z,2.20
2023-03-20T14:01:51.529Z,2.27
2023-03-20T14:04:21.223Z,3.00
2023-03-20T14:06:56.973Z,2.63
2023-03-20T14:09:29.764Z,2.30
2023-03-20T14:12:02.385Z,2.17
2023-03-20T14:14:41.815Z,2.00
2023-03-20T14:17:20.718Z,2.93
2023-03-20T14:19:50.861Z,2.70
2023-03-20T14:22:20.895Z,2.10
2023-03-20T14:24:55.008Z,2.83
2023-03-20T14:27:36.840Z,3.43
2023-03-20T14:30:31.774Z,2.20
2023-03-20T14:33:22.469Z,1.80
2023-03-20T14:35:55.052Z,2.67
2023-03-20T14:38:54.145Z,2.13
2023-03-20T14:41:36.506Z,1.77
2023-03-20T14:44:18.541Z,2.20
2023-03-20T14:46:52.866Z,2.13
2023-03-20T14:49:39.118Z,1.97
2023-03-20T14:52:15.808Z,2.00
2023-03-20T14:54:43.563Z,1.70
2023-03-20T14:57:19.934Z,6.13
2023-03-20T14:59:50.842Z,1.90
2023-03-20T15:02:44.909Z,2.87
2023-03-20T15:05:24.572Z,2.50
2023-03-20T15:07:53.036Z,2.27
2023-03-20T15:10:21.074Z,3.87
2023-03-20T15:12:49.087Z,1.93
2023-03-20T15:15:34.817Z,2.00
2023-03-20T15:18:12.806Z,2.00
2023-03-20T15:20:41.685Z,5.07
2023-03-20T15:23:09.372Z,1.83
2023-03-20T15:25:41.089Z,3.47
2023-03-20T15:28:09.287Z,2.77
2023-03-20T15:30:46.594Z,1.87
2023-03-20T15:33:19.937Z,1.93
2023-03-20T15:35:50.592Z,4.50
2023-03-20T15:38:18.811Z,2.13
2023-03-20T15:40:51.492Z,3.23
2023-03-20T15:43:24.724Z,3.23
2023-03-20T15:46:16.359Z,2.55
2023-03-20T15:48:59.993Z,2.33
2023-03-20T15:51:28.907Z,3.33
2023-03-20T15:53:56.852Z,2.27
2023-03-20T15:56:29.044Z,4.40
2023-03-20T15:58:57.581Z,2.30
2023-03-20T16:01:27.125Z,2.97
2023-03-20T16:03:59.054Z,5.57
2023-03-20T16:06:30.001Z,3.43
2023-03-20T16:08:59.179Z,6.20
2023-03-20T16:11:39.168Z,1.87
2023-03-20T16:14:08.810Z,5.07
2023-03-20T16:16:37.819Z,3.23
2023-03-20T16:19:07.646Z,3.00
2023-03-20T16:21:40.727Z,2.83
2023-03-20T16:24:09.815Z,3.03
2023-03-20T16:26:38.926Z,1.80
2023-03-20T16:29:11.925Z,2.97
2023-03-20T16:31:53.587Z,4.13
2023-03-20T16:34:25.492Z,2.17
2023-03-20T16:36:58.988Z,3.80
2023-03-20T16:39:28.156Z,4.50
2023-03-20T16:42:03.764Z,3.03
2023-03-20T16:44:36.534Z,2.70
2023-03-20T16:47:24.849Z,1.93
2023-03-20T16:50:11.182Z,3.57
2023-03-20T16:52:44.861Z,1.97
2023-03-20T16:55:17.696Z,4.20
2023-03-20T16:57:47.663Z,2.57
2023-03-20T17:00:34.569Z,1.83
2023-03-20T17:03:08.607Z,2.80
2023-03-20T17:05:43.924Z,4.30
2023-03-20T17:08:14.588Z,4.37
2023-03-20T17:10:55.502Z,4.00
2023-03-20T17:13:23.164Z,2.53
2023-03-20T17:15:50.874Z,2.57
2023-03-20T17:18:18.539Z,2.77
2023-03-20T17:20:51.899Z,2.43
2023-03-20T17:23:21.423Z,2.33
2023-03-20T17:25:54.113Z,4.03
2023-03-20T17:28:24.446Z,3.77
2023-03-20T17:30:52.569Z,3.63
2023-03-20T17:33:25.341Z,3.37
2023-03-20T17:35:53.830Z,2.03
2023-03-20T17:38:24.614Z,3.83
2023-03-20T17:40:53.125Z,3.40
2023-03-20T17:43:23.958Z,5.57
2023-03-20T17:45:51.500Z,1.90
2023-03-20T17:48:22.066Z,3.77
2023-03-20T17:50:50.916Z,2.20
2023-03-20T17:53:21.943Z,1.57
2023-03-20T17:55:49.790Z,1.50
2023-03-20T17:58:22.052Z,2.83
2023-03-20T18:00:50.559Z,1.93
2023-03-20T18:03:18.556Z,2.47
2023-03-20T18:05:46.990Z,2.07
2023-03-20T18:08:22.237Z,1.93
2023-03-20T18:10:52.013Z,1.50
2023-03-20T18:13:21.268Z,2.97
2023-03-20T18:15:52.760Z,4.13
2023-03-20T18:18:23.718Z,1.50
2023-03-20T18:20:52.412Z,3.60
2023-03-20T18:23:20.028Z,2.67
2023-03-20T18:25:47.686Z,2.37
2023-03-20T18:28:22.590Z,3.67
2023-03-20T18:30:50.683Z,5.37
2023-03-20T18:33:19.382Z,5.50
2023-03-20T18:38:36.461Z,2.77
2023-03-20T18:41:03.914Z,1.67
2023-03-20T18:43:31.642Z,4.27
2023-03-20T18:45:59.429Z,2.20
2023-03-20T18:48:27.290Z,2.30
2023-03-20T18:51:01.007Z,2.97
2023-03-20T18:53:29.163Z,3.43
2023-03-20T18:55:56.927Z,4.47
2023-03-20T18:58:28.905Z,2.50
2023-03-20T19:01:00.534Z,3.20
2023-03-20T19:03:28.861Z,3.67
2023-03-20T19:05:57.892Z,2.00
2023-03-20T19:08:25.613Z,1.87
2023-03-20T19:10:53.148Z,3.00
2023-03-20T19:13:28.501Z,3.53
2023-03-20T19:15:58.790Z,2.63
2023-03-20T19:18:27.972Z,1.90
2023-03-20T19:20:57.390Z,7.37
2023-03-20T19:23:25.704Z,2.13
2023-03-20T19:26:01.493Z,3.93
2023-03-20T19:28:40.601Z,2.57
2023-03-20T19:31:09.922Z,2.67
2023-03-20T19:33:38.686Z,3.10
2023-03-20T19:36:06.722Z,1.90
2023-03-20T19:38:36.728Z,2.57
2023-03-20T19:41:08.703Z,1.47
2023-03-20T19:43:51.446Z,1.70
2023-03-20T19:46:36.233Z,2.00
2023-03-20T19:49:06.840Z,2.27
2023-03-20T19:51:34.485Z,1.60
2023-03-20T19:54:02.026Z,1.70
2023-03-20T19:56:34.591Z,1.73
2023-03-20T19:59:03.212Z,6.43
2023-03-20T20:01:30.817Z,1.80
2023-03-20T20:03:59.071Z,2.60
2023-03-20T20:06:32.435Z,1.87
2023-03-20T20:09:01.160Z,1.10
2023-03-20T20:11:33.038Z,1.60
2023-03-20T20:14:09.829Z,1.40
2023-03-20T20:16:43.363Z,1.70
2023-03-20T20:19:11.169Z,1.47
2023-03-20T20:24:26.957Z,2.37
2023-03-20T20:27:14.608Z,2.47
2023-03-20T20:29:44.287Z,1.23
2023-03-20T20:32:11.859Z,1.40
2023-03-20T20:40:17.330Z,1.33
2023-03-20T20:42:47.514Z,1.50
2023-03-20T20:45:15.470Z,1.50
2023-03-20T20:47:44.940Z,1.43
2023-03-20T20:50:17.406Z,1.70
2023-03-20T20:52:45.204Z,1.37
2023-03-20T20:55:22.445Z,1.10
2023-03-20T20:57:51.257Z,1.30
2023-03-20T21:00:27.353Z,1.07
2023-03-20T21:02:59.882Z,1.13
2023-03-20T21:05:27.763Z,1.23
2023-03-20T21:07:55.440Z,1.40
2023-03-20T21:10:23.226Z,1.67
2023-03-20T21:12:59.974Z,1.20
2023-03-20T21:15:28.407Z,1.47
2023-03-20T21:18:03.627Z,1.13
2023-03-20T21:20:31.850Z,1.30
2023-03-20T21:23:02.353Z,1.57
2023-03-20T21:25:40.240Z,1.20
2023-03-20T21:28:13.098Z,1.57
2023-03-20T21:30:59.954Z,1.43
2023-03-20T21:33:37.624Z,1.30
2023-03-20T21:36:06.938Z,1.03
2023-03-20T21:41:22.368Z,1.20
2023-03-20T21:43:51.931Z,1.40
2023-03-20T21:46:52.566Z,1.10
2023-03-20T21:49:58.471Z,1.20
2023-03-20T21:55:27.507Z,1.20
2023-03-20T22:03:11.484Z,1.57
2023-03-20T22:23:26.428Z,1.50
2023-03-20T22:29:03.233Z,1.57
2023-03-20T22:34:28.879Z,1.50
2023-03-20T22:40:11.457Z,1.57
2023-03-20T22:42:47.975Z,1.47
2023-03-20T22:45:03.764Z,1.43
2023-03-20T22:47:32.011Z,1.73
2023-03-20T22:49:59.511Z,1.60
2023-03-20T22:52:38.339Z,1.70
2023-03-20T22:55:09.902Z,2.10
2023-03-20T22:57:45.489Z,1.90
2023-03-20T23:00:20.782Z,1.50
2023-03-20T23:02:48.441Z,1.53
2023-03-20T23:05:16.674Z,1.73
2023-03-20T23:07:45.885Z,1.77
2023-03-20T23:10:13.722Z,2.97
2023-03-20T23:12:43.885Z,2.50
2023-03-20T23:15:11.572Z,1.50
2023-03-20T23:17:38.934Z,2.23
2023-03-20T23:20:12.333Z,2.20
2023-03-20T23:22:41.720Z,2.43
2023-03-20T23:25:18.648Z,1.97
2023-03-20T23:27:51.427Z,2.53
2023-03-20T23:30:23.414Z,2.03
2023-03-20T23:32:52.533Z,1.90
2023-03-20T23:35:19.942Z,1.63
2023-03-20T23:37:47.492Z,1.80
2023-03-20T23:40:14.913Z,3.57
2023-03-20T23:42:42.222Z,2.40
2023-03-20T23:45:19.951Z,2.03
2023-03-20T23:47:49.605Z,1.83
2023-03-20T23:50:28.648Z,1.90
2023-03-20T23:53:13.197Z,2.10
2023-03-20T23:55:46.312Z,2.23
2023-03-20T23:58:14.178Z,2.40
